createdAt,value
2023-02-04T00:00:20.121Z,0.80
2023-02-04T00:02:47.325Z,0.80
2023-02-04T00:05:14.617Z,1.00
2023-02-04T00:07:41.678Z,1.10
2023-02-04T00:10:09.522Z,1.10
2023-02-04T00:12:36.938Z,1.17
2023-02-04T00:15:05.406Z,0.77
2023-02-04T00:17:32.437Z,1.08
2023-02-04T00:19:59.450Z,1.23
2023-02-04T00:22:28.427Z,0.93
2023-02-04T00:24:55.448Z,0.80
2023-02-04T00:27:23.096Z,0.90
2023-02-04T00:29:50.216Z,0.93
2023-02-04T00:32:17.329Z,0.77
2023-02-04T00:34:44.413Z,0.82
2023-02-04T00:37:11.431Z,0.68
2023-02-04T00:39:38.511Z,1.05
2023-02-04T00:42:06.399Z,1.05
2023-02-04T00:44:33.572Z,1.00
2023-02-04T00:47:00.666Z,0.90
2023-02-04T00:49:27.674Z,1.00
2023-02-04T00:51:54.669Z,0.63
2023-02-04T00:54:21.771Z,0.68
2023-02-04T00:56:48.842Z,0.90
2023-02-04T00:59:15.983Z,0.93
2023-02-04T01:01:43.274Z,1.08
2023-02-04T01:04:10.572Z,0.80
2023-02-04T01:06:37.663Z,0.77
2023-02-04T01:09:05.298Z,0.77
2023-02-04T01:11:32.379Z,0.60
2023-02-04T01:13:59.667Z,0.60
2023-02-04T01:16:26.867Z,0.60
2023-02-04T01:18:55.973Z,0.80
2023-02-04T01:21:24.309Z,0.70
2023-02-04T01:23:52.027Z,0.60
2023-02-04T01:26:19.805Z,0.65
2023-02-04T01:28:46.969Z,0.88
2023-02-04T01:31:15.336Z,0.80
2023-02-04T01:33:42.588Z,0.88
2023-02-04T01:36:09.731Z,0.60
2023-02-04T01:38:36.880Z,0.85
2023-02-04T01:41:05.230Z,0.50
2023-02-04T01:43:33.164Z,0.80
2023-02-04T01:46:02.527Z,0.50
2023-02-04T01:48:30.179Z,0.63
2023-02-04T01:51:11.178Z,0.40
2023-02-04T01:53:38.895Z,0.60
2023-02-04T01:56:20.426Z,0.60
2023-02-04T01:58:48.605Z,0.70
2023-02-04T02:01:33.675Z,0.60
2023-02-04T02:04:01.467Z,0.50
2023-02-04T02:06:29.311Z,0.47
2023-02-04T02:08:58.428Z,0.80
2023-02-04T02:11:26.969Z,0.60
2023-02-04T02:13:54.918Z,0.60
2023-02-04T02:16:23.584Z,0.73
2023-02-04T02:18:53.592Z,0.68
2023-02-04T02:21:30.978Z,0.50
2023-02-04T02:23:58.291Z,0.77
2023-02-04T02:26:25.612Z,0.60
2023-02-04T02:28:53.171Z,0.52
2023-02-04T02:31:22.989Z,0.70
2023-02-04T02:33:50.362Z,0.40
2023-02-04T02:36:17.808Z,0.47
2023-02-04T02:38:44.943Z,0.40
2023-02-04T02:41:12.160Z,0.47
2023-02-04T02:43:39.808Z,0.63
2023-02-04T02:46:07.269Z,0.57
2023-02-04T02:48:34.461Z,0.63
2023-02-04T02:51:01.634Z,0.65
2023-02-04T02:53:28.783Z,0.50
2023-02-04T02:55:55.872Z,0.60
2023-02-04T02:58:32.702Z,0.70
2023-02-04T03:01:08.765Z,0.40
2023-02-04T03:03:39.717Z,0.30
2023-02-04T03:06:15.225Z,0.65
2023-02-04T03:08:43.720Z,0.40
2023-02-04T03:11:11.159Z,0.47
2023-02-04T03:13:38.859Z,0.60
2023-02-04T03:16:08.269Z,0.57
2023-02-04T03:18:36.456Z,0.50
2023-02-04T03:21:05.069Z,0.50
2023-02-04T03:23:34.016Z,0.35
2023-02-04T03:26:01.955Z,0.32
2023-02-04T03:28:30.407Z,0.43
2023-02-04T03:30:58.436Z,0.38
2023-02-04T03:33:29.203Z,0.50
2023-02-04T03:35:56.260Z,0.40
2023-02-04T03:38:23.276Z,0.32
2023-02-04T03:40:50.424Z,0.60
2023-02-04T03:43:17.416Z,0.40
2023-02-04T03:45:45.865Z,0.60
2023-02-04T03:48:13.484Z,0.35
2023-02-04T03:50:40.666Z,0.35
2023-02-04T03:53:08.029Z,0.35
2023-02-04T03:55:36.158Z,0.50
2023-02-04T03:58:04.440Z,0.30
2023-02-04T04:00:32.701Z,0.20
2023-02-04T04:03:00.289Z,0.20
2023-02-04T04:05:28.769Z,0.30
2023-02-04T04:07:56.040Z,0.40
2023-02-04T04:10:23.089Z,0.17
2023-02-04T04:12:50.262Z,0.30
2023-02-04T04:15:17.696Z,0.40
2023-02-04T04:17:44.833Z,0.22
2023-02-04T04:20:12.493Z,0.50
2023-02-04T04:22:40.077Z,0.20
2023-02-04T04:25:08.001Z,0.20
2023-02-04T04:27:35.129Z,0.20
2023-02-04T04:30:02.467Z,0.20
2023-02-04T04:32:29.526Z,0.30
2023-02-04T04:34:56.560Z,0.20
2023-02-04T04:37:23.575Z,0.30
2023-02-04T04:39:50.637Z,0.57
2023-02-04T04:42:17.678Z,0.30
2023-02-04T04:44:44.786Z,0.22
2023-02-04T04:47:11.818Z,0.10
2023-02-04T04:49:38.843Z,0.30
2023-02-04T04:52:05.901Z,0.20
2023-02-04T04:54:32.992Z,0.30
2023-02-04T04:57:00.096Z,0.10
2023-02-04T04:59:27.128Z,0.47
2023-02-04T05:01:54.231Z,0.22
2023-02-04T05:04:21.438Z,0.25
2023-02-04T05:06:48.735Z,0.20
2023-02-04T05:09:17.623Z,0.32
2023-02-04T05:11:44.727Z,0.43
2023-02-04T05:14:11.823Z,0.30
2023-02-04T05:16:38.996Z,0.30
2023-02-04T05:19:06.030Z,0.30
2023-02-04T05:21:33.135Z,0.20
2023-02-04T05:24:00.248Z,0.30
2023-02-04T05:26:30.469Z,0.13
2023-02-04T05:29:00.501Z,0.20
2023-02-04T05:31:27.801Z,0.20
2023-02-04T05:33:55.215Z,0.10
2023-02-04T05:36:22.440Z,0.10
2023-02-04T05:38:49.609Z,0.20
2023-02-04T05:41:16.590Z,0.20
2023-02-04T05:43:43.611Z,0.17
2023-02-04T05:46:10.714Z,0.20
2023-02-04T05:48:40.093Z,0.17
2023-02-04T05:51:07.213Z,0.32
2023-02-04T05:53:34.290Z,0.13
2023-02-04T05:56:01.401Z,0.30
2023-02-04T05:58:33.728Z,0.20
2023-02-04T06:01:01.768Z,0.15
2023-02-04T06:03:30.025Z,0.20
2023-02-04T06:05:57.391Z,0.30
2023-02-04T06:08:24.880Z,0.30
2023-02-04T06:10:51.992Z,0.20
2023-02-04T06:13:19.103Z,0.47
2023-02-04T06:15:46.120Z,0.22
2023-02-04T06:18:14.058Z,0.35
2023-02-04T06:20:41.197Z,0.20
2023-02-04T06:23:08.351Z,0.20
2023-02-04T06:25:35.575Z,0.30
2023-02-04T06:28:02.601Z,0.20
2023-02-04T06:30:29.740Z,0.10
2023-02-04T06:32:56.882Z,0.20
2023-02-04T06:35:23.917Z,0.20
2023-02-04T06:37:50.993Z,0.30
2023-02-04T06:40:18.240Z,0.10
2023-02-04T06:42:45.280Z,0.20
2023-02-04T06:45:12.308Z,0.25
2023-02-04T06:47:39.317Z,0.20
2023-02-04T06:50:06.595Z,0.10
2023-02-04T06:52:33.983Z,0.10
2023-02-04T06:55:00.998Z,0.17
2023-02-04T06:57:28.093Z,0.03
2023-02-04T06:59:55.118Z,0.10
2023-02-04T07:02:22.159Z,0.10
2023-02-04T07:04:49.481Z,0.10
2023-02-04T07:07:16.495Z,0.10
2023-02-04T07:09:43.592Z,0.20
2023-02-04T07:12:10.684Z,0.22
2023-02-04T07:14:37.807Z,0.30
2023-02-04T07:17:04.876Z,0.13
2023-02-04T07:19:31.960Z,0.30
2023-02-04T07:21:58.972Z,0.10
2023-02-04T07:24:26.071Z,0.20
2023-02-04T07:26:53.241Z,0.10
2023-02-04T07:29:25.719Z,0.10
2023-02-04T07:31:53.657Z,0.20
2023-02-04T07:34:20.935Z,0.10
2023-02-04T07:36:48.272Z,0.10
2023-02-04T07:39:15.464Z,0.10
2023-02-04T07:41:42.700Z,0.25
2023-02-04T07:44:09.824Z,0.20
2023-02-04T07:46:36.940Z,0.10
2023-02-04T07:49:04.013Z,0.20
2023-02-04T07:51:31.264Z,0.30
2023-02-04T07:53:58.564Z,0.75
2023-02-04T07:56:25.602Z,0.65
2023-02-04T07:58:52.811Z,0.20
2023-02-04T08:01:19.940Z,0.28
2023-02-04T08:03:47.024Z,0.50
2023-02-04T08:06:14.099Z,0.20
2023-02-04T08:08:41.173Z,0.20
2023-02-04T08:11:08.559Z,0.28
2023-02-04T08:13:35.628Z,0.17
2023-02-04T08:16:02.719Z,0.30
2023-02-04T08:18:30.345Z,0.20
2023-02-04T08:20:59.266Z,0.30
2023-02-04T08:23:26.308Z,0.50
2023-02-04T08:25:53.425Z,0.22
2023-02-04T08:28:20.481Z,0.30
2023-02-04T08:30:47.708Z,1.17
2023-02-04T08:33:14.755Z,0.25
2023-02-04T08:35:41.743Z,0.40
2023-02-04T08:38:08.775Z,0.20
2023-02-04T08:40:36.271Z,0.45
2023-02-04T08:43:03.527Z,0.50
2023-02-04T08:45:30.520Z,0.43
2023-02-04T08:47:57.796Z,0.40
2023-02-04T08:50:24.877Z,0.98
2023-02-04T08:52:51.988Z,0.43
2023-02-04T08:55:22.322Z,0.38
2023-02-04T08:57:49.373Z,0.60
2023-02-04T09:00:16.650Z,0.38
2023-02-04T09:02:43.655Z,0.98
2023-02-04T09:05:10.756Z,0.90
2023-02-04T09:07:37.794Z,0.60
2023-02-04T09:10:05.017Z,0.82
2023-02-04T09:12:32.034Z,0.47
2023-02-04T09:14:59.058Z,0.73
2023-02-04T09:17:26.085Z,0.65
2023-02-04T09:19:53.136Z,0.70
2023-02-04T09:22:20.147Z,0.63
2023-02-04T09:24:47.201Z,0.70
2023-02-04T09:27:14.362Z,0.50
2023-02-04T09:29:41.415Z,0.40
2023-02-04T09:32:08.474Z,0.60
2023-02-04T09:34:36.648Z,1.05
2023-02-04T09:37:03.716Z,0.70
2023-02-04T09:39:32.856Z,0.80
2023-02-04T09:41:59.970Z,0.68
2023-02-04T09:44:28.808Z,0.47
2023-02-04T09:47:00.278Z,0.40
2023-02-04T09:49:28.861Z,0.77
2023-02-04T09:51:56.722Z,0.77
2023-02-04T09:54:25.184Z,0.50
2023-02-04T09:56:53.087Z,0.55
2023-02-04T09:59:23.636Z,0.93
2023-02-04T10:01:57.621Z,0.60
2023-02-04T10:04:24.782Z,0.60
2023-02-04T10:06:52.165Z,0.60
2023-02-04T10:09:19.400Z,0.65
2023-02-04T10:11:48.804Z,0.85
2023-02-04T10:14:21.319Z,0.85
2023-02-04T10:16:57.206Z,0.60
2023-02-04T10:19:26.264Z,0.65
2023-02-04T10:21:53.471Z,0.65
2023-02-04T10:24:26.465Z,0.60
2023-02-04T10:26:54.307Z,0.80
2023-02-04T10:29:25.939Z,0.50
2023-02-04T10:31:53.753Z,0.60
2023-02-04T10:34:34.371Z,0.43
2023-02-04T10:39:43.450Z,0.38
2023-02-04T10:42:28.369Z,0.30
2023-02-04T10:44:55.884Z,0.30
2023-02-04T10:47:26.679Z,0.43
2023-02-04T10:50:06.348Z,0.50
2023-02-04T10:52:39.766Z,0.40
2023-02-04T10:55:13.293Z,0.30
2023-02-04T10:57:42.269Z,0.30
2023-02-04T11:00:22.388Z,0.20
2023-02-04T11:02:59.363Z,0.30
2023-02-04T11:05:35.120Z,0.40
2023-02-04T11:08:03.330Z,0.50
2023-02-04T11:10:34.592Z,0.30
2023-02-04T11:13:05.156Z,0.50
2023-02-04T11:15:50.303Z,0.43
2023-02-04T11:18:30.247Z,0.20
2023-02-04T11:20:59.248Z,0.40
2023-02-04T11:23:34.597Z,0.38
2023-02-04T11:26:09.068Z,0.40
2023-02-04T11:28:56.724Z,0.45
2023-02-04T11:31:43.101Z,0.32
2023-02-04T11:34:27.580Z,0.30
2023-02-04T11:37:08.299Z,0.20
2023-02-04T11:39:46.064Z,0.30
2023-02-04T11:42:44.534Z,0.60
2023-02-04T11:45:27.636Z,0.63
2023-02-04T11:47:58.056Z,0.43
2023-02-04T11:50:33.071Z,0.55
2023-02-04T11:53:04.926Z,0.22
2023-02-04T11:55:35.421Z,0.28
2023-02-04T12:00:31.634Z,0.15
2023-02-04T12:03:01.837Z,0.50
2023-02-04T12:05:43.760Z,0.30
2023-02-04T12:08:33.203Z,0.52
2023-02-04T12:11:25.994Z,0.45
2023-02-04T12:13:56.583Z,0.50
2023-02-04T12:16:28.109Z,0.60
2023-02-04T12:18:55.645Z,0.25
2023-02-04T12:21:22.686Z,0.45
2023-02-04T12:23:49.740Z,0.70
2023-02-04T12:26:16.773Z,0.45
2023-02-04T12:28:43.810Z,0.47
2023-02-04T12:31:11.025Z,0.50
2023-02-04T12:33:38.141Z,0.68
2023-02-04T12:36:05.504Z,0.60
2023-02-04T12:38:32.515Z,0.32
2023-02-04T12:41:00.030Z,0.32
2023-02-04T12:43:28.429Z,0.55
2023-02-04T12:45:55.903Z,0.43
2023-02-04T12:48:22.976Z,0.30
2023-02-04T12:50:49.991Z,0.38
2023-02-04T12:53:17.066Z,0.30
2023-02-04T12:55:44.084Z,0.47
2023-02-04T12:58:11.135Z,0.70
2023-02-04T13:00:38.642Z,0.50
2023-02-04T13:03:05.693Z,0.43
2023-02-04T13:05:34.587Z,0.30
2023-02-04T13:08:03.195Z,0.60
2023-02-04T13:10:30.210Z,0.60
2023-02-04T13:12:57.251Z,0.45
2023-02-04T13:15:24.254Z,0.50
2023-02-04T13:17:51.272Z,0.50
2023-02-04T13:20:18.804Z,0.60
2023-02-04T13:22:45.893Z,0.70
2023-02-04T13:25:13.042Z,0.77
2023-02-04T13:27:40.442Z,0.63
2023-02-04T13:30:08.937Z,0.60
2023-02-04T13:32:35.976Z,0.82
2023-02-04T13:35:03.253Z,0.65
2023-02-04T13:37:30.249Z,0.60
2023-02-04T13:39:57.313Z,0.85
2023-02-04T13:42:24.439Z,0.52
2023-02-04T13:44:51.895Z,0.95
2023-02-04T13:47:18.887Z,0.80
2023-02-04T13:49:45.881Z,0.70
2023-02-04T13:52:15.875Z,0.70
2023-02-04T13:54:42.924Z,0.95
2023-02-04T13:57:09.952Z,0.98
2023-02-04T13:59:37.006Z,0.70
2023-02-04T14:02:04.132Z,0.65
2023-02-04T14:04:31.205Z,0.77
2023-02-04T14:06:58.213Z,0.65
2023-02-04T14:09:25.600Z,0.60
2023-02-04T14:11:52.658Z,0.60
2023-02-04T14:14:19.714Z,0.88
2023-02-04T14:16:46.753Z,1.00
2023-02-04T14:19:15.133Z,0.80
2023-02-04T14:21:42.182Z,0.70
2023-02-04T14:24:09.365Z,0.60
2023-02-04T14:26:36.393Z,0.60
2023-02-04T14:29:04.633Z,0.98
2023-02-04T14:31:31.744Z,0.82
2023-02-04T14:33:59.420Z,0.50
2023-02-04T14:36:26.503Z,0.70
2023-02-04T14:38:53.569Z,0.68
2023-02-04T14:41:21.572Z,0.75
2023-02-04T14:43:48.675Z,0.75
2023-02-04T14:46:15.790Z,0.77
2023-02-04T14:48:42.896Z,0.75
2023-02-04T14:51:09.972Z,1.17
2023-02-04T14:53:37.035Z,0.80
2023-02-04T14:56:04.664Z,0.85
2023-02-04T14:58:31.728Z,0.70
2023-02-04T15:00:58.828Z,0.63
2023-02-04T15:03:25.896Z,0.80
2023-02-04T15:05:52.967Z,0.60
2023-02-04T15:08:22.761Z,0.70
2023-02-04T15:10:49.738Z,0.88
2023-02-04T15:13:16.968Z,0.73
2023-02-04T15:15:59.321Z,0.52
2023-02-04T15:18:26.729Z,0.90
2023-02-04T15:20:53.773Z,0.70
2023-02-04T15:23:20.857Z,0.43
2023-02-04T15:25:48.406Z,0.88
2023-02-04T15:28:15.591Z,0.50
2023-02-04T15:30:42.763Z,0.55
2023-02-04T15:33:11.498Z,0.45
2023-02-04T15:35:38.601Z,0.52
2023-02-04T15:38:12.971Z,0.60
2023-02-04T15:40:42.374Z,0.60
2023-02-04T15:43:10.486Z,0.55
2023-02-04T15:45:41.542Z,0.77
2023-02-04T15:48:08.990Z,0.77
2023-02-04T15:50:36.930Z,0.40
2023-02-04T15:53:04.504Z,0.52
2023-02-04T15:55:31.570Z,0.43
2023-02-04T15:57:58.666Z,0.45
2023-02-04T16:00:25.742Z,0.40
2023-02-04T16:02:52.798Z,0.30
2023-02-04T16:05:19.926Z,0.50
2023-02-04T16:07:47.069Z,0.50
2023-02-04T16:10:14.155Z,0.80
2023-02-04T16:12:41.259Z,0.70
2023-02-04T16:15:08.783Z,0.60
2023-02-04T16:17:36.074Z,0.35
2023-02-04T16:20:04.316Z,0.50
2023-02-04T16:22:31.842Z,0.50
2023-02-04T16:24:58.917Z,0.50
2023-02-04T16:27:27.086Z,0.70
2023-02-04T16:29:56.722Z,0.60
2023-02-04T16:32:24.019Z,0.52
2023-02-04T16:34:51.128Z,0.40
2023-02-04T16:37:18.748Z,0.55
2023-02-04T16:39:45.962Z,0.40
2023-02-04T16:42:13.160Z,0.70
2023-02-04T16:44:40.313Z,0.32
2023-02-04T16:47:08.838Z,0.60
2023-02-04T16:49:36.570Z,0.38
2023-02-04T16:52:05.299Z,0.40
2023-02-04T16:54:33.779Z,0.52
2023-02-04T16:57:01.651Z,0.20
2023-02-04T16:59:28.893Z,0.45
2023-02-04T17:01:57.819Z,0.50
2023-02-04T17:04:25.453Z,0.32
2023-02-04T17:06:53.015Z,0.50
2023-02-04T17:09:20.590Z,0.60
2023-02-04T17:11:47.740Z,0.80
2023-02-04T17:14:18.934Z,0.50
2023-02-04T17:16:47.167Z,0.60
2023-02-04T17:19:17.682Z,0.60
2023-02-04T17:24:12.606Z,0.30
2023-02-04T17:26:40.601Z,0.30
2023-02-04T17:29:10.754Z,0.57
2023-02-04T17:31:38.662Z,0.38
2023-02-04T17:34:06.516Z,0.20
2023-02-04T17:36:36.892Z,0.30
2023-02-04T17:39:04.774Z,0.30
2023-02-04T17:41:32.442Z,0.22
2023-02-04T17:44:00.155Z,0.30
2023-02-04T17:46:28.520Z,0.38
2023-02-04T17:48:55.660Z,0.43
2023-02-04T17:51:22.910Z,0.30
2023-02-04T17:53:49.990Z,0.40
2023-02-04T17:56:17.208Z,0.38
2023-02-04T17:58:44.341Z,0.20
2023-02-04T18:01:16.354Z,0.40
2023-02-04T18:03:46.145Z,0.38
2023-02-04T18:06:22.964Z,0.60
2023-02-04T18:08:51.918Z,0.30
2023-02-04T18:11:27.379Z,0.30
2023-02-04T18:14:05.198Z,0.25
2023-02-04T18:16:34.733Z,0.20
2023-02-04T18:19:16.894Z,0.37
2023-02-04T18:21:44.401Z,0.20
2023-02-04T18:24:22.805Z,0.28
2023-02-04T18:26:52.278Z,0.50
2023-02-04T18:29:38.662Z,0.40
2023-02-04T18:32:28.750Z,0.40
2023-02-04T18:34:58.905Z,0.30
2023-02-04T18:37:35.648Z,0.20
2023-02-04T18:40:27.307Z,0.38
2023-02-04T18:43:22.643Z,0.30
2023-02-04T18:45:49.941Z,0.22
2023-02-04T18:48:56.805Z,0.30
2023-02-04T18:51:40.147Z,0.45
2023-02-04T18:54:35.418Z,0.30
2023-02-04T18:57:29.329Z,0.30
2023-02-04T19:00:21.971Z,0.28
2023-02-04T19:02:54.138Z,0.35
2023-02-04T19:05:46.368Z,0.25
2023-02-04T19:08:23.939Z,0.57
2023-02-04T19:10:55.998Z,0.20
2023-02-04T19:13:37.783Z,0.60
2023-02-04T19:16:26.058Z,0.43
2023-02-04T19:18:57.524Z,0.30
2023-02-04T19:21:28.933Z,0.30
2023-02-04T19:24:19.412Z,0.30
2023-02-04T19:27:01.801Z,0.40
2023-02-04T19:29:41.044Z,0.52
2023-02-04T19:32:24.559Z,0.20
2023-02-04T19:34:53.161Z,0.20
2023-02-04T19:37:38.934Z,0.10
2023-02-04T19:40:27.103Z,0.22
2023-02-04T19:43:18.639Z,0.20
2023-02-04T19:45:46.636Z,0.17
2023-02-04T19:48:34.798Z,0.57
2023-02-04T19:51:27.270Z,0.38
2023-02-04T19:54:20.219Z,0.20
2023-02-04T19:56:47.364Z,0.20
2023-02-04T19:59:27.712Z,0.28
2023-02-04T20:02:27.855Z,0.20
2023-02-04T20:04:55.126Z,0.30
2023-02-04T20:07:25.500Z,0.10
2023-02-04T20:09:58.718Z,0.22
2023-02-04T20:12:28.648Z,0.20
2023-02-04T20:15:11.615Z,0.20
2023-02-04T20:17:41.597Z,0.25
2023-02-04T20:20:30.654Z,0.30
2023-02-04T20:22:59.676Z,0.25
2023-02-04T20:25:45.929Z,0.20
2023-02-04T20:28:36.156Z,0.30
2023-02-04T20:31:15.671Z,0.22
2023-02-04T20:33:52.110Z,0.30
2023-02-04T20:36:40.853Z,0.20
2023-02-04T20:39:36.486Z,0.30
2023-02-04T20:42:29.601Z,0.30
2023-02-04T20:45:09.702Z,0.35
2023-02-04T20:47:36.829Z,0.28
2023-02-04T20:50:33.623Z,0.28
2023-02-04T20:53:08.784Z,0.20
2023-02-04T20:55:36.170Z,0.20
2023-02-04T20:58:23.046Z,0.30
2023-02-04T21:00:53.979Z,0.20
2023-02-04T21:03:33.757Z,0.43
2023-02-04T21:06:02.236Z,0.27
2023-02-04T21:08:45.293Z,0.20
2023-02-04T21:11:12.405Z,0.40
2023-02-04T21:13:40.966Z,0.43
2023-02-04T21:16:08.986Z,0.30
2023-02-04T21:18:36.661Z,0.40
2023-02-04T21:21:05.491Z,0.10
2023-02-04T21:23:32.549Z,0.35
2023-02-04T21:25:59.809Z,0.25
2023-02-04T21:28:27.639Z,0.30
2023-02-04T21:30:54.843Z,0.20
2023-02-04T21:33:22.030Z,0.30
2023-02-04T21:35:49.114Z,0.25
2023-02-04T21:38:16.250Z,0.10
2023-02-04T21:40:43.902Z,0.40
2023-02-04T21:43:11.285Z,0.20
2023-02-04T21:45:39.859Z,0.40
2023-02-04T21:48:08.116Z,0.20
2023-02-04T21:50:37.747Z,0.40
2023-02-04T21:53:05.867Z,0.23
2023-02-04T21:55:33.228Z,0.17
2023-02-04T21:58:00.516Z,0.10
2023-02-04T22:00:28.014Z,0.30
2023-02-04T22:02:55.421Z,0.20
2023-02-04T22:05:23.321Z,0.13
2023-02-04T22:07:50.789Z,0.20
2023-02-04T22:10:21.495Z,0.30
2023-02-04T22:12:48.789Z,0.10
2023-02-04T22:15:16.861Z,0.20
2023-02-04T22:17:44.896Z,0.40
2023-02-04T22:20:15.084Z,0.40
2023-02-04T22:22:43.912Z,0.20
2023-02-04T22:25:12.404Z,0.30
2023-02-04T22:27:39.534Z,0.20
2023-02-04T22:30:08.380Z,0.32
2023-02-04T22:32:35.572Z,0.10
2023-02-04T22:35:02.624Z,0.40
2023-02-04T22:37:29.726Z,0.20
2023-02-04T22:39:56.902Z,0.10
2023-02-04T22:42:24.028Z,0.20
2023-02-04T22:44:51.108Z,0.30
2023-02-04T22:47:18.220Z,0.20
2023-02-04T22:49:45.357Z,0.30
2023-02-04T22:52:13.463Z,0.10
2023-02-04T22:54:41.227Z,0.30
2023-02-04T22:57:08.364Z,0.20
2023-02-04T22:59:35.674Z,0.20
2023-02-04T23:02:02.865Z,0.20
2023-02-04T23:04:29.973Z,0.20
2023-02-04T23:06:57.080Z,0.20
2023-02-04T23:09:24.120Z,0.40
2023-02-04T23:11:51.267Z,0.20
2023-02-04T23:14:18.313Z,0.15
2023-02-04T23:16:47.132Z,0.30
2023-02-04T23:19:14.227Z,0.30
2023-02-04T23:21:41.287Z,0.25
2023-02-04T23:24:08.599Z,0.20
2023-02-04T23:26:35.856Z,0.13
2023-02-04T23:29:03.219Z,0.20
2023-02-04T23:31:30.323Z,0.70
2023-02-04T23:33:57.405Z,0.20
2023-02-04T23:36:24.493Z,0.60
2023-02-04T23:38:51.586Z,0.10
2023-02-04T23:41:19.398Z,0.32
2023-02-04T23:43:46.448Z,0.20
2023-02-04T23:46:13.641Z,0.40
2023-02-04T23:48:40.744Z,0.13
2023-02-04T23:51:07.798Z,0.20
2023-02-04T23:53:34.864Z,0.30
2023-02-04T23:56:01.954Z,0.30
2023-02-04T23:58:29.005Z,0.20
